createdAt,value
2022-08-07T00:02:50.659Z,99.90
2022-08-07T00:05:46.398Z,99.90
2022-08-07T00:08:39.076Z,99.90
2022-08-07T00:11:48.079Z,99.90
2022-08-07T00:14:47.467Z,99.90
2022-08-07T00:17:41.014Z,99.90
2022-08-07T00:20:35.357Z,99.90
2022-08-07T00:23:30.198Z,99.90
2022-08-07T00:26:58.639Z,99.90
2022-08-07T00:29:36.929Z,99.90
2022-08-07T00:32:29.202Z,99.90
2022-08-07T00:35:29.823Z,99.90
2022-08-07T00:38:31.392Z,99.90
2022-08-07T00:41:32.559Z,99.90
2022-08-07T00:44:38.208Z,99.90
2022-08-07T00:48:08.090Z,99.90
2022-08-07T00:50:50.761Z,99.90
2022-08-07T00:53:50.663Z,99.90
2022-08-07T00:56:49.840Z,99.90
2022-08-07T00:59:42.514Z,99.90
2022-08-07T01:02:34.805Z,99.90
2022-08-07T01:05:27.525Z,99.90
2022-08-07T01:08:22.339Z,99.90
2022-08-07T01:12:23.903Z,99.90
2022-08-07T01:14:32.599Z,99.90
2022-08-07T01:17:30.833Z,99.90
2022-08-07T01:20:43.308Z,99.90
2022-08-07T01:23:39.312Z,99.90
2022-08-07T01:26:34.386Z,99.90
2022-08-07T01:29:31.318Z,99.90
2022-08-07T01:32:24.297Z,99.90
2022-08-07T01:35:17.422Z,99.90
2022-08-07T01:38:09.846Z,99.90
2022-08-07T01:41:06.949Z,99.90
2022-08-07T01:44:03.928Z,99.90
2022-08-07T01:46:57.364Z,99.90
2022-08-07T01:49:54.790Z,99.90
2022-08-07T01:52:49.733Z,99.90
2022-08-07T01:55:50.873Z,99.90
2022-08-07T01:58:49.733Z,99.90
2022-08-07T02:02:02.741Z,99.90
2022-08-07T02:05:16.119Z,99.90
2022-08-07T02:08:25.420Z,99.90
2022-08-07T02:11:57.600Z,99.90
2022-08-07T02:14:35.711Z,99.90
2022-08-07T02:17:34.161Z,99.90
2022-08-07T02:20:30.288Z,99.90
2022-08-07T02:23:24.177Z,99.90
2022-08-07T02:26:32.668Z,99.90
2022-08-07T02:29:28.434Z,99.90
2022-08-07T02:32:26.930Z,99.90
2022-08-07T02:36:28.205Z,99.90
2022-08-07T02:38:38.304Z,99.90
2022-08-07T02:41:33.341Z,99.90
2022-08-07T02:44:34.709Z,99.90
2022-08-07T02:47:35.045Z,99.90
2022-08-07T02:50:42.547Z,99.90
2022-08-07T02:53:38.869Z,99.90
2022-08-07T02:56:33.970Z,99.90
2022-08-07T02:59:27.753Z,99.90
2022-08-07T03:02:20.709Z,99.90
2022-08-07T03:05:20.739Z,99.90
2022-08-07T03:08:16.590Z,99.90
2022-08-07T03:11:09.532Z,99.90
2022-08-07T03:14:03.932Z,99.90
2022-08-07T03:16:57.133Z,99.90
2022-08-07T03:19:55.319Z,99.90
2022-08-07T03:22:50.341Z,99.90
2022-08-07T03:25:45.534Z,99.90
2022-08-07T03:28:51.630Z,99.90
2022-08-07T03:31:46.405Z,99.90
2022-08-07T03:34:47.472Z,99.90
2022-08-07T03:38:06.258Z,99.90
2022-08-07T03:41:03.801Z,99.90
2022-08-07T03:43:57.667Z,99.90
2022-08-07T03:47:13.522Z,99.90
2022-08-07T03:50:04.277Z,99.90
2022-08-07T03:52:59.858Z,99.90
2022-08-07T03:56:03.675Z,99.90
2022-08-07T03:59:07.644Z,99.90
2022-08-07T04:02:02.944Z,99.90
2022-08-07T04:04:55.851Z,99.90
2022-08-07T04:07:51.302Z,99.90
2022-08-07T04:10:53.942Z,99.90
2022-08-07T04:14:10.310Z,99.90
2022-08-07T04:17:20.603Z,99.90
2022-08-07T04:20:23.457Z,99.90
2022-08-07T04:23:19.170Z,99.90
2022-08-07T04:26:12.738Z,99.90
2022-08-07T04:29:12.180Z,99.90
2022-08-07T04:32:10.251Z,99.90
2022-08-07T04:35:05.746Z,99.90
2022-08-07T04:38:03.418Z,99.90
2022-08-07T04:40:59.412Z,99.90
2022-08-07T04:44:12.607Z,99.90
2022-08-07T04:48:01.633Z,99.90
2022-08-07T04:50:52.956Z,99.90
2022-08-07T04:54:06.187Z,99.90
2022-08-07T04:58:13.688Z,99.90
2022-08-07T05:00:41.031Z,99.90
2022-08-07T05:04:06.866Z,99.90
2022-08-07T05:07:36.962Z,99.90
2022-08-07T05:10:41.768Z,99.90
2022-08-07T05:14:54.210Z,99.90
2022-08-07T05:17:11.707Z,99.90
2022-08-07T05:20:09.608Z,99.90
2022-08-07T05:23:15.479Z,99.90
2022-08-07T05:26:18.783Z,99.90
2022-08-07T05:29:20.015Z,99.90
2022-08-07T05:32:14.901Z,99.90
2022-08-07T05:35:10.029Z,99.90
2022-08-07T05:38:08.411Z,99.90
2022-08-07T05:41:02.593Z,99.90
2022-08-07T05:44:08.369Z,99.90
2022-08-07T05:47:18.834Z,99.90
2022-08-07T05:50:11.765Z,99.90
2022-08-07T05:53:04.406Z,99.90
2022-08-07T05:56:02.379Z,99.90
2022-08-07T05:59:01.802Z,99.90
2022-08-07T06:01:54.744Z,99.90
2022-08-07T06:05:10.734Z,99.90
2022-08-07T06:08:29.144Z,99.90
2022-08-07T06:11:22.718Z,99.90
2022-08-07T06:14:28.801Z,99.90
2022-08-07T06:17:30.416Z,99.90
2022-08-07T06:20:50.879Z,99.90
2022-08-07T06:24:46.179Z,99.90
2022-08-07T06:27:03.681Z,99.90
2022-08-07T06:30:32.038Z,99.90
2022-08-07T06:33:23.862Z,99.90
2022-08-07T06:36:27.477Z,99.90
2022-08-07T06:40:17.474Z,99.90
2022-08-07T06:42:42.491Z,99.90
2022-08-07T06:45:39.285Z,99.90
2022-08-07T06:48:37.018Z,99.90
2022-08-07T06:51:35.961Z,99.90
2022-08-07T06:55:32.640Z,99.90
2022-08-07T06:58:04.600Z,99.90
2022-08-07T07:00:58.685Z,99.90
2022-08-07T07:04:04.274Z,99.90
2022-08-07T07:07:10.392Z,99.90
2022-08-07T07:10:13.105Z,99.90
2022-08-07T07:13:14.635Z,99.90
2022-08-07T07:16:19.599Z,99.90
2022-08-07T07:19:56.404Z,99.90
2022-08-07T07:22:36.194Z,99.90
2022-08-07T07:26:31.598Z,99.90
2022-08-07T07:29:56.197Z,99.90
2022-08-07T07:32:40.463Z,99.90
2022-08-07T07:35:51.923Z,99.90
2022-08-07T07:38:47.560Z,99.90
2022-08-07T07:42:02.307Z,99.90
2022-08-07T07:44:57.570Z,99.90
2022-08-07T07:47:53.302Z,99.90
2022-08-07T07:50:49.077Z,99.90
2022-08-07T07:53:52.109Z,99.90
2022-08-07T07:56:46.370Z,99.90
2022-08-07T07:59:52.498Z,99.90
2022-08-07T08:03:04.952Z,99.40
2022-08-07T08:05:58.618Z,99.40
2022-08-07T08:08:52.421Z,99.20
2022-08-07T08:11:59.921Z,98.50
2022-08-07T08:14:55.880Z,99.20
2022-08-07T08:17:58.169Z,99.50
2022-08-07T08:20:51.854Z,99.40
2022-08-07T08:24:05.436Z,99.10
2022-08-07T08:27:14.498Z,99.40
2022-08-07T08:30:17.292Z,97.60
2022-08-07T08:33:16.900Z,98.00
2022-08-07T08:36:11.460Z,98.90
2022-08-07T08:39:08.251Z,97.90
2022-08-07T08:42:06.318Z,97.60
2022-08-07T08:45:21.562Z,97.30
2022-08-07T08:48:50.895Z,96.60
2022-08-07T08:52:14.191Z,96.20
2022-08-07T08:55:58.562Z,95.30
2022-08-07T08:59:13.715Z,97.00
2022-08-07T09:02:11.785Z,97.20
2022-08-07T09:05:36.711Z,97.70
2022-08-07T09:08:55.550Z,96.60
2022-08-07T09:12:20.154Z,95.50
2022-08-07T09:16:22.309Z,93.10
2022-08-07T09:18:36.950Z,93.20
2022-08-07T09:22:22.472Z,91.60
2022-08-07T09:25:17.427Z,92.10
2022-08-07T09:30:05.813Z,93.30
2022-08-07T09:32:18.572Z,91.80
2022-08-07T09:36:04.928Z,92.20
2022-08-07T09:38:39.026Z,93.00
2022-08-07T09:41:58.953Z,93.60
2022-08-07T09:47:26.079Z,94.20
2022-08-07T09:50:01.160Z,93.50
2022-08-07T09:52:59.552Z,92.80
2022-08-07T09:56:13.650Z,92.70
2022-08-07T09:59:44.336Z,92.30
2022-08-07T10:02:55.792Z,92.50
2022-08-07T10:06:10.497Z,93.10
2022-08-07T10:09:42.691Z,92.90
2022-08-07T10:12:53.179Z,93.50
2022-08-07T10:16:12.060Z,92.00
2022-08-07T10:19:20.914Z,90.60
2022-08-07T10:22:24.950Z,90.10
2022-08-07T10:26:03.379Z,90.00
2022-08-07T10:29:24.042Z,90.60
2022-08-07T10:32:52.402Z,90.90
2022-08-07T10:36:13.948Z,90.60
2022-08-07T10:39:41.893Z,91.30
2022-08-07T10:42:51.863Z,88.90
2022-08-07T10:45:58.372Z,88.00
2022-08-07T10:49:14.373Z,90.30
2022-08-07T10:52:13.518Z,89.70
2022-08-07T10:55:26.846Z,90.30
2022-08-07T10:59:00.289Z,90.70
2022-08-07T11:02:27.375Z,90.60
2022-08-07T11:05:51.074Z,90.20
2022-08-07T11:08:54.696Z,90.10
2022-08-07T11:12:13.891Z,91.40
2022-08-07T11:15:20.839Z,90.80
2022-08-07T11:18:44.600Z,91.10
2022-08-07T11:21:54.415Z,91.10
2022-08-07T11:24:58.781Z,90.90
2022-08-07T11:28:15.465Z,90.80
2022-08-07T11:31:36.884Z,91.90
2022-08-07T11:34:52.799Z,90.90
2022-08-07T11:38:10.204Z,91.10
2022-08-07T11:41:28.282Z,91.10
2022-08-07T11:44:52.627Z,91.90
2022-08-07T11:48:13.833Z,91.30
2022-08-07T11:51:41.939Z,90.00
2022-08-07T11:54:57.469Z,88.90
2022-08-07T11:58:02.673Z,88.70
2022-08-07T12:01:58.682Z,87.50
2022-08-07T12:04:55.637Z,87.20
2022-08-07T12:08:25.448Z,86.50
2022-08-07T12:11:32.511Z,85.70
2022-08-07T12:14:29.909Z,87.10
2022-08-07T12:17:28.233Z,87.50
2022-08-07T12:20:36.441Z,84.70
2022-08-07T12:24:05.609Z,85.20
2022-08-07T12:27:14.957Z,84.50
2022-08-07T12:30:09.371Z,83.70
2022-08-07T12:33:23.261Z,84.50
2022-08-07T12:36:32.742Z,84.80
2022-08-07T12:39:42.439Z,83.60
2022-08-07T12:42:38.172Z,84.70
2022-08-07T12:45:56.315Z,82.70
2022-08-07T12:49:09.797Z,83.20
2022-08-07T12:52:39.927Z,85.00
2022-08-07T12:56:03.394Z,83.60
2022-08-07T12:58:59.630Z,83.90
2022-08-07T13:02:17.296Z,85.20
2022-08-07T13:06:03.969Z,83.80
2022-08-07T13:08:38.657Z,85.50
2022-08-07T13:12:15.346Z,83.50
2022-08-07T13:15:23.689Z,83.20
2022-08-07T13:19:02.754Z,83.50
2022-08-07T13:22:28.046Z,84.30
2022-08-07T13:25:28.912Z,83.10
2022-08-07T13:28:32.770Z,83.30
2022-08-07T13:31:55.080Z,83.70
2022-08-07T13:35:08.619Z,82.70
2022-08-07T13:38:11.549Z,83.20
2022-08-07T13:41:23.134Z,82.50
2022-08-07T13:44:34.521Z,84.40
2022-08-07T13:48:06.909Z,83.60
2022-08-07T13:51:00.033Z,83.70
2022-08-07T13:54:01.001Z,82.60
2022-08-07T13:56:59.627Z,81.20
2022-08-07T13:59:55.925Z,82.10
2022-08-07T14:02:53.948Z,82.20
2022-08-07T14:05:52.703Z,80.80
2022-08-07T14:08:48.613Z,83.20
2022-08-07T14:12:00.326Z,83.20
2022-08-07T14:15:01.668Z,81.30
2022-08-07T14:18:24.187Z,81.90
2022-08-07T14:21:20.737Z,80.90
2022-08-07T14:24:33.965Z,80.90
2022-08-07T14:28:10.642Z,82.70
2022-08-07T14:31:01.850Z,82.70
2022-08-07T14:33:56.137Z,82.30
2022-08-07T14:36:56.349Z,81.50
2022-08-07T14:40:16.512Z,81.40
2022-08-07T14:43:58.299Z,80.80
2022-08-07T14:46:31.060Z,81.60
2022-08-07T14:49:57.234Z,82.70
2022-08-07T14:52:47.802Z,83.70
2022-08-07T14:55:56.191Z,85.40
2022-08-07T14:58:55.257Z,84.40
2022-08-07T15:01:50.873Z,83.90
2022-08-07T15:04:53.311Z,84.30
2022-08-07T15:07:50.885Z,84.60
2022-08-07T15:10:58.797Z,84.20
2022-08-07T15:13:57.465Z,85.30
2022-08-07T15:17:22.816Z,84.30
2022-08-07T15:20:33.796Z,84.20
2022-08-07T15:25:13.284Z,84.30
2022-08-07T15:26:46.767Z,85.40
2022-08-07T15:30:06.886Z,85.00
2022-08-07T15:33:03.846Z,83.40
2022-08-07T15:39:13.320Z,85.00
2022-08-07T15:42:44.542Z,82.60
2022-08-07T15:45:56.503Z,84.20
2022-08-07T15:49:11.863Z,84.80
2022-08-07T15:54:55.769Z,85.10
2022-08-07T15:58:00.195Z,83.70
2022-08-07T16:00:53.062Z,84.20
2022-08-07T16:03:54.403Z,85.10
2022-08-07T16:06:56.758Z,86.00
2022-08-07T16:09:54.011Z,84.90
2022-08-07T16:13:17.842Z,85.40
2022-08-07T16:16:49.364Z,86.90
2022-08-07T16:20:00.690Z,85.40
2022-08-07T16:23:54.850Z,85.20
2022-08-07T16:26:58.731Z,84.90
2022-08-07T16:30:29.681Z,85.10
2022-08-07T16:34:02.404Z,85.70
2022-08-07T16:37:01.668Z,86.00
2022-08-07T16:40:28.779Z,86.10
2022-08-07T16:44:03.813Z,86.20
2022-08-07T16:47:17.849Z,87.30
2022-08-07T16:51:21.863Z,87.30
2022-08-07T16:54:18.396Z,86.60
2022-08-07T16:58:02.530Z,87.80
2022-08-07T17:00:50.096Z,87.30
2022-08-07T17:04:04.212Z,87.40
2022-08-07T17:07:55.577Z,88.30
2022-08-07T17:10:56.681Z,88.50
2022-08-07T17:14:18.727Z,88.70
2022-08-07T17:17:46.794Z,87.90
2022-08-07T17:20:46.499Z,88.20
2022-08-07T17:23:46.187Z,89.30
2022-08-07T17:27:04.248Z,88.70
2022-08-07T17:30:14.047Z,88.70
2022-08-07T17:34:09.854Z,88.70
2022-08-07T17:36:58.345Z,89.50
2022-08-07T17:40:03.020Z,89.90
2022-08-07T17:43:18.373Z,89.80
2022-08-07T17:46:28.447Z,89.90
2022-08-07T17:49:45.366Z,90.00
2022-08-07T17:52:46.368Z,90.00
2022-08-07T17:56:06.114Z,90.10
2022-08-07T17:59:09.038Z,90.30
2022-08-07T18:02:23.433Z,90.50
2022-08-07T18:06:02.172Z,90.80
2022-08-07T18:09:02.313Z,91.00
2022-08-07T18:12:16.865Z,91.10
2022-08-07T18:15:22.927Z,90.90
2022-08-07T18:18:46.072Z,90.90
2022-08-07T18:21:53.367Z,91.00
2022-08-07T18:24:51.196Z,91.10
2022-08-07T18:27:50.008Z,91.30
2022-08-07T18:31:01.348Z,91.70
2022-08-07T18:34:40.775Z,91.90
2022-08-07T18:38:54.780Z,92.40
2022-08-07T18:41:16.905Z,92.40
2022-08-07T18:44:18.705Z,92.70
2022-08-07T18:47:26.356Z,92.90
2022-08-07T18:51:01.577Z,93.10
2022-08-07T18:53:54.273Z,93.20
2022-08-07T18:56:58.297Z,93.40
2022-08-07T19:00:34.409Z,93.40
2022-08-07T19:03:37.509Z,93.80
2022-08-07T19:06:49.692Z,93.80
2022-08-07T19:09:56.258Z,94.10
2022-08-07T19:13:21.626Z,94.30
2022-08-07T19:17:04.751Z,94.50
2022-08-07T19:20:28.853Z,94.90
2022-08-07T19:23:58.135Z,95.10
2022-08-07T19:28:29.100Z,95.20
2022-08-07T19:31:00.694Z,95.40
2022-08-07T19:33:15.515Z,95.50
2022-08-07T19:36:13.452Z,95.50
2022-08-07T19:39:08.892Z,95.60
2022-08-07T19:42:24.709Z,95.80
2022-08-07T19:46:01.178Z,96.10
2022-08-07T19:48:54.216Z,96.20
2022-08-07T19:52:00.219Z,96.20
2022-08-07T19:54:57.200Z,96.50
2022-08-07T19:58:12.798Z,96.80
2022-08-07T20:01:09.569Z,96.80
2022-08-07T20:04:03.013Z,97.20
2022-08-07T20:06:57.397Z,97.70
2022-08-07T20:10:35.276Z,97.90
2022-08-07T20:13:07.353Z,98.10
2022-08-07T20:16:35.569Z,97.90
2022-08-07T20:19:47.940Z,98.20
2022-08-07T20:22:45.553Z,98.30
2022-08-07T20:25:40.717Z,98.20
2022-08-07T20:28:50.580Z,98.40
2022-08-07T20:31:45.042Z,98.90
2022-08-07T20:34:50.738Z,99.30
2022-08-07T20:37:58.727Z,99.90
2022-08-07T20:41:00.688Z,99.90
2022-08-07T20:43:57.951Z,99.90
2022-08-07T20:46:53.747Z,99.90
2022-08-07T20:50:02.335Z,99.90
2022-08-07T20:52:56.931Z,99.90
2022-08-07T20:55:54.647Z,99.90
2022-08-07T20:58:53.155Z,99.30
2022-08-07T21:01:55.131Z,98.30
2022-08-07T21:04:50.580Z,96.70
2022-08-07T21:07:43.573Z,96.80
2022-08-07T21:10:44.621Z,96.80
2022-08-07T21:13:43.939Z,96.40
2022-08-07T21:18:00.485Z,96.30
2022-08-07T21:20:26.639Z,95.90
2022-08-07T21:23:28.909Z,95.50
2022-08-07T21:26:49.189Z,95.40
2022-08-07T21:29:52.861Z,95.10
2022-08-07T21:32:52.148Z,95.40
2022-08-07T21:36:04.109Z,95.90
2022-08-07T21:39:46.279Z,96.10
2022-08-07T21:42:49.287Z,95.90
2022-08-07T21:46:10.686Z,96.00
2022-08-07T21:49:27.031Z,95.90
2022-08-07T21:52:49.646Z,96.20
2022-08-07T21:55:52.459Z,96.40
2022-08-07T22:00:04.094Z,96.50
2022-08-07T22:03:30.878Z,95.90
2022-08-07T22:06:37.206Z,95.90
2022-08-07T22:09:53.846Z,95.70
2022-08-07T22:12:56.141Z,95.30
2022-08-07T22:16:38.583Z,95.40
2022-08-07T22:19:08.185Z,95.60
2022-08-07T22:22:21.508Z,96.00
2022-08-07T22:25:36.532Z,96.30
2022-08-07T22:28:55.225Z,98.30
2022-08-07T22:32:26.128Z,96.80
2022-08-07T22:35:18.394Z,96.90
2022-08-07T22:38:37.749Z,99.50
2022-08-07T22:42:03.878Z,99.80
2022-08-07T22:45:11.057Z,99.80
2022-08-07T22:49:02.116Z,99.90
2022-08-07T22:52:36.956Z,99.80
2022-08-07T22:55:30.685Z,99.50
2022-08-07T22:58:37.729Z,99.30
2022-08-07T23:01:59.182Z,99.20
2022-08-07T23:06:07.373Z,99.20
2022-08-07T23:08:45.819Z,99.20
2022-08-07T23:12:10.523Z,99.00
2022-08-07T23:16:04.618Z,99.10
2022-08-07T23:19:48.087Z,99.50
2022-08-07T23:23:14.673Z,99.90
2022-08-07T23:27:04.347Z,99.90
2022-08-07T23:30:39.408Z,99.90
2022-08-07T23:34:34.699Z,99.90
2022-08-07T23:37:19.429Z,99.80
2022-08-07T23:40:39.645Z,99.70
2022-08-07T23:43:44.674Z,99.30
2022-08-07T23:46:55.806Z,99.30
2022-08-07T23:50:29.763Z,99.90
2022-08-07T23:53:51.233Z,99.90
2022-08-07T23:57:02.191Z,99.90
